Time;durP1;ratioP1;P1;durP2;ratioP2;P2;SDS_P1;SDS_P2;PMS_P1;PMS_P2;Temp;Humidity;BMP_temperature;BMP_pressure;BME280_temperature;BME280_humidity;BME280_pressure;Samples;Min_cycle;Max_cycle;Signal;HPM_P1;HPM_P2
2022/10/15 00:01:09;;;;;;;45.17;27.33;;;;;;;;;;5020003;28;20167;-75
2022/10/15 00:03:36;;;;;;;51.50;28.50;;;;;;;;;;5013986;28;20267;-74
2022/10/15 00:06:09;;;;;;;45.97;28.40;;;;;;;;;;5011933;28;20223;-74
2022/10/15 00:08:34;;;;;;;47.08;27.60;;;;;;;;;;5024366;28;20175;-74
2022/10/15 00:11:07;;;;;;;44.10;26.05;;;;;;;;;;5018746;28;20209;-75
2022/10/15 00:13:32;;;;;;;45.53;27.08;;;;;;;;;;5022038;28;20202;-75
2022/10/15 00:15:58;;;;;;;51.03;28.65;;;;;;;;;;5028187;28;20245;-74
2022/10/15 00:18:23;;;;;;;49.90;28.63;;;;;;;;;;5030540;28;20190;-74
2022/10/15 00:20:48;;;;;;;50.00;30.38;;;;;;;;;;5028502;28;20178;-74
2022/10/15 00:23:13;;;;;;;53.03;29.70;;;;;;;;;;5023893;28;20186;-75
2022/10/15 00:25:41;;;;;;;46.97;27.02;;;;;;;;;;5016012;28;20214;-75
2022/10/15 00:28:06;;;;;;;51.08;31.33;;;;;;;;;;5026811;28;20174;-75
2022/10/15 00:30:31;;;;;;;50.55;28.08;;;;;;;;;;5027472;28;20466;-74
2022/10/15 00:32:56;;;;;;;47.17;28.33;;;;;;;;;;5022058;28;20206;-74
2022/10/15 00:35:21;;;;;;;52.08;30.48;;;;;;;;;;5028417;28;20190;-74
2022/10/15 00:37:46;;;;;;;52.33;28.35;;;;;;;;;;5025580;28;20301;-74
2022/10/15 00:40:14;;;;;;;54.42;30.42;;;;;;;;;;5015071;28;20187;-74
2022/10/15 00:42:39;;;;;;;49.78;29.63;;;;;;;;;;5023784;28;20209;-75
2022/10/15 00:45:04;;;;;;;53.80;29.15;;;;;;;;;;5028577;28;20199;-75
2022/10/15 00:47:47;;;;;;;54.50;29.80;;;;;;;;;;5031920;28;20212;-75
2022/10/15 00:50:15;;;;;;;50.67;28.02;;;;;;;;;;5028637;28;20293;-73
2022/10/15 00:52:43;;;;;;;53.40;30.75;;;;;;;;;;5019484;28;20187;-73
2022/10/15 00:55:09;;;;;;;59.65;31.95;;;;;;;;;;5006543;28;20195;-75
2022/10/15 00:57:35;;;;;;;59.45;29.92;;;;;;;;;;5025847;28;20250;-73
2022/10/15 01:00:03;;;;;;;52.95;28.95;;;;;;;;;;5011611;28;20273;-75
2022/10/15 01:02:28;;;;;;;51.83;30.30;;;;;;;;;;5024154;28;20182;-75
2022/10/15 01:04:54;;;;;;;57.47;30.95;;;;;;;;;;5030674;28;20575;-74
2022/10/15 01:07:19;;;;;;;57.15;31.27;;;;;;;;;;5008965;28;20644;-73
2022/10/15 01:09:45;;;;;;;61.10;32.08;;;;;;;;;;5011327;28;20672;-74
2022/10/15 01:12:14;;;;;;;57.38;30.42;;;;;;;;;;5020348;28;20250;-74
2022/10/15 01:14:47;;;;;;;57.97;32.72;;;;;;;;;;5011836;28;20233;-74
2022/10/15 01:17:12;;;;;;;60.33;32.90;;;;;;;;;;5023757;28;20245;-75
2022/10/15 01:19:37;;;;;;;57.83;32.67;;;;;;;;;;5023205;28;20662;-74
2022/10/15 01:22:21;;;;;;;63.50;33.15;;;;;;;;;;5020261;28;20203;-74
2022/10/15 01:24:46;;;;;;;66.60;34.33;;;;;;;;;;5013456;28;20198;-73
2022/10/15 01:27:30;;;;;;;64.17;32.87;;;;;;;;;;5029370;28;20648;-75
2022/10/15 01:30:24;;;;;;;60.03;30.77;;;;;;;;;;5016704;28;20447;-73
2022/10/15 01:32:49;;;;;;;64.65;33.78;;;;;;;;;;4987096;28;20270;-74
2022/10/15 01:35:26;;;;;;;67.80;35.00;;;;;;;;;;5022609;28;20285;-73
2022/10/15 01:37:55;;;;;;;64.80;35.05;;;;;;;;;;5017517;28;20170;-75
2022/10/15 01:40:25;;;;;;;70.90;37.05;;;;;;;;;;5009758;28;20701;-74
2022/10/15 01:42:55;;;;;;;65.28;33.78;;;;;;;;;;5031067;28;20533;-75
2022/10/15 01:45:24;;;;;;;68.72;34.30;;;;;;;;;;5026542;28;20202;-75
2022/10/15 01:47:58;;;;;;;62.38;35.65;;;;;;;;;;5004884;28;20210;-74
2022/10/15 01:50:25;;;;;;;68.75;34.25;;;;;;;;;;5022057;28;20580;-75
2022/10/15 01:52:51;;;;;;;78.85;37.38;;;;;;;;;;5030476;28;20189;-74
2022/10/15 01:55:18;;;;;;;66.40;34.20;;;;;;;;;;5028310;28;20199;-74
2022/10/15 01:57:43;;;;;;;72.72;36.65;;;;;;;;;;5008097;28;20548;-73
2022/10/15 02:00:09;;;;;;;66.43;35.42;;;;;;;;;;5015311;28;20182;-74
2022/10/15 02:02:34;;;;;;;70.43;36.78;;;;;;;;;;5015486;28;20174;-73
2022/10/15 02:05:00;;;;;;;65.97;34.28;;;;;;;;;;5024890;28;20617;-74
2022/10/15 02:07:44;;;;;;;67.10;34.35;;;;;;;;;;5030867;28;20178;-73
2022/10/15 02:10:22;;;;;;;68.18;36.65;;;;;;;;;;5026303;28;20193;-73
2022/10/15 02:12:48;;;;;;;64.65;34.58;;;;;;;;;;5012092;28;20588;-73
2022/10/15 02:15:16;;;;;;;59.73;34.43;;;;;;;;;;5018695;28;20194;-75
2022/10/15 02:17:57;;;;;;;62.00;34.33;;;;;;;;;;5031212;28;20399;-74
2022/10/15 02:20:23;;;;;;;59.13;34.47;;;;;;;;;;5010395;28;20174;-74
2022/10/15 02:22:48;;;;;;;61.05;34.90;;;;;;;;;;5026458;28;20214;-74
2022/10/15 02:25:16;;;;;;;56.97;33.78;;;;;;;;;;5028925;28;20237;-75
2022/10/15 02:27:43;;;;;;;57.17;31.80;;;;;;;;;;5011794;28;20542;-75
2022/10/15 02:30:09;;;;;;;59.03;34.65;;;;;;;;;;5016431;28;20199;-73
2022/10/15 02:32:36;;;;;;;68.28;35.42;;;;;;;;;;5009418;28;20540;-74
2022/10/15 02:35:01;;;;;;;61.28;34.42;;;;;;;;;;5012335;28;20197;-75
2022/10/15 02:37:27;;;;;;;69.63;37.30;;;;;;;;;;5011672;28;20171;-75
2022/10/15 02:39:53;;;;;;;56.53;31.15;;;;;;;;;;5023348;28;20174;-73
2022/10/15 02:42:18;;;;;;;62.40;35.17;;;;;;;;;;5012088;28;20229;-75
2022/10/15 02:44:44;;;;;;;65.10;35.08;;;;;;;;;;5018162;28;20270;-73
2022/10/15 02:47:10;;;;;;;54.45;32.70;;;;;;;;;;5018322;28;20237;-73
2022/10/15 02:49:35;;;;;;;60.47;33.95;;;;;;;;;;5029656;28;20683;-74
2022/10/15 02:52:00;;;;;;;63.70;34.67;;;;;;;;;;5026257;28;20181;-73
2022/10/15 02:54:25;;;;;;;50.30;28.77;;;;;;;;;;5014076;28;20195;-75
2022/10/15 02:56:50;;;;;;;59.17;32.30;;;;;;;;;;5017900;28;20166;-74
2022/10/15 02:59:17;;;;;;;54.35;31.98;;;;;;;;;;5032824;28;20186;-73
2022/10/15 03:01:42;;;;;;;57.80;31.85;;;;;;;;;;5008132;28;20183;-75
2022/10/15 03:04:07;;;;;;;53.33;31.70;;;;;;;;;;5012818;28;20249;-75
2022/10/15 03:06:32;;;;;;;44.28;29.30;;;;;;;;;;5017999;28;20380;-74
2022/10/15 03:08:58;;;;;;;50.65;30.05;;;;;;;;;;5024476;28;20181;-75
2022/10/15 03:11:23;;;;;;;51.17;29.60;;;;;;;;;;5030193;28;20178;-75
2022/10/15 03:13:48;;;;;;;54.63;29.88;;;;;;;;;;5008946;28;20175;-74
2022/10/15 03:16:13;;;;;;;48.38;29.65;;;;;;;;;;5020874;28;20190;-73
2022/10/15 03:18:39;;;;;;;46.60;28.48;;;;;;;;;;5019255;28;20223;-74
2022/10/15 03:21:05;;;;;;;49.83;28.77;;;;;;;;;;5017751;28;20824;-73
2022/10/15 03:23:30;;;;;;;47.72;28.38;;;;;;;;;;5032111;28;20243;-73
2022/10/15 03:25:55;;;;;;;50.03;28.77;;;;;;;;;;5030422;28;20308;-75
2022/10/15 03:28:21;;;;;;;45.37;27.63;;;;;;;;;;5000739;28;20199;-74
2022/10/15 03:30:47;;;;;;;44.43;26.70;;;;;;;;;;5008474;28;20215;-75
2022/10/15 03:33:12;;;;;;;56.10;30.30;;;;;;;;;;5023692;28;20588;-73
2022/10/15 03:35:38;;;;;;;49.10;29.57;;;;;;;;;;5025258;28;20228;-73
2022/10/15 03:38:03;;;;;;;46.30;28.17;;;;;;;;;;5033003;28;20194;-75
2022/10/15 03:40:28;;;;;;;46.13;27.40;;;;;;;;;;5031498;28;20196;-73
2022/10/15 03:42:55;;;;;;;56.30;31.20;;;;;;;;;;5021236;28;20202;-74
2022/10/15 03:45:20;;;;;;;43.70;27.87;;;;;;;;;;5015199;28;20252;-75
2022/10/15 03:47:46;;;;;;;47.83;27.87;;;;;;;;;;5033397;28;20170;-76
2022/10/15 03:50:11;;;;;;;53.53;30.07;;;;;;;;;;5030243;28;20190;-75
2022/10/15 03:52:36;;;;;;;52.13;29.97;;;;;;;;;;5032920;28;20182;-74
2022/10/15 03:55:02;;;;;;;48.90;28.77;;;;;;;;;;5030385;28;20201;-74
2022/10/15 03:57:27;;;;;;;48.93;29.40;;;;;;;;;;5008811;28;20186;-75
2022/10/15 03:59:52;;;;;;;48.07;28.20;;;;;;;;;;5020803;28;20178;-74
2022/10/15 04:02:17;;;;;;;45.80;27.43;;;;;;;;;;5032746;28;20197;-73
2022/10/15 04:04:43;;;;;;;46.03;27.27;;;;;;;;;;5030475;28;20741;-74
2022/10/15 04:07:08;;;;;;;40.67;25.07;;;;;;;;;;5031874;28;20250;-73
2022/10/15 04:09:33;;;;;;;46.40;28.97;;;;;;;;;;5024715;28;20195;-75
2022/10/15 04:11:58;;;;;;;52.07;30.37;;;;;;;;;;5021328;28;20166;-75
2022/10/15 04:14:24;;;;;;;50.87;28.33;;;;;;;;;;5023455;28;20198;-75
2022/10/15 04:16:49;;;;;;;53.67;30.67;;;;;;;;;;5024594;28;20224;-75
2022/10/15 04:19:14;;;;;;;50.87;30.27;;;;;;;;;;5028966;28;20185;-75
2022/10/15 04:21:40;;;;;;;54.83;31.37;;;;;;;;;;5007654;28;20175;-74
2022/10/15 04:24:05;;;;;;;58.97;31.07;;;;;;;;;;5022569;28;20202;-74
2022/10/15 04:26:30;;;;;;;55.80;32.10;;;;;;;;;;5017851;28;20505;-75
2022/10/15 04:28:55;;;;;;;59.83;32.87;;;;;;;;;;5031476;28;20186;-75
2022/10/15 04:31:21;;;;;;;57.63;32.00;;;;;;;;;;5027316;28;20262;-74
2022/10/15 04:33:49;;;;;;;61.50;32.50;;;;;;;;;;5031203;28;20174;-74
2022/10/15 04:36:14;;;;;;;57.13;33.03;;;;;;;;;;5006574;28;20203;-74
2022/10/15 04:38:39;;;;;;;62.17;35.90;;;;;;;;;;5016884;28;20167;-74
2022/10/15 04:41:09;;;;;;;60.13;34.83;;;;;;;;;;5023834;28;20520;-74
2022/10/15 04:43:35;;;;;;;69.37;37.30;;;;;;;;;;5031294;28;20179;-75
2022/10/15 04:46:01;;;;;;;64.67;34.77;;;;;;;;;;5027357;28;20699;-75
2022/10/15 04:48:26;;;;;;;65.85;35.75;;;;;;;;;;5006036;28;20231;-75
2022/10/15 04:50:52;;;;;;;58.92;36.47;;;;;;;;;;5016884;28;20629;-73
2022/10/15 04:53:17;;;;;;;66.25;34.65;;;;;;;;;;5016506;28;20229;-73
2022/10/15 04:55:42;;;;;;;54.10;32.55;;;;;;;;;;5016316;28;20195;-73
2022/10/15 04:58:07;;;;;;;63.25;35.05;;;;;;;;;;5027162;28;20288;-75
2022/10/15 05:00:32;;;;;;;59.72;34.75;;;;;;;;;;5027664;28;20178;-74
2022/10/15 05:02:58;;;;;;;55.20;32.92;;;;;;;;;;5029967;28;20180;-75
2022/10/15 05:05:23;;;;;;;60.28;35.00;;;;;;;;;;5018684;28;20202;-75
2022/10/15 05:07:48;;;;;;;62.05;35.67;;;;;;;;;;5007209;28;20171;-74
2022/10/15 05:10:13;;;;;;;62.10;36.38;;;;;;;;;;5026024;28;20244;-75
2022/10/15 05:12:39;;;;;;;65.20;34.60;;;;;;;;;;5027224;28;20217;-75
2022/10/15 05:15:04;;;;;;;62.25;36.95;;;;;;;;;;5022228;28;20570;-75
2022/10/15 05:17:29;;;;;;;59.08;33.53;;;;;;;;;;5006619;28;20267;-74
2022/10/15 05:19:55;;;;;;;63.92;35.30;;;;;;;;;;5015174;28;20182;-74
2022/10/15 05:22:20;;;;;;;69.07;37.22;;;;;;;;;;5023180;28;20698;-75
2022/10/15 05:24:45;;;;;;;72.03;36.85;;;;;;;;;;5018318;28;20241;-75
2022/10/15 05:27:10;;;;;;;69.75;37.08;;;;;;;;;;5031440;28;20257;-74
2022/10/15 05:29:37;;;;;;;77.10;37.97;;;;;;;;;;5028867;28;20242;-75
2022/10/15 05:32:02;;;;;;;79.95;38.28;;;;;;;;;;5010305;28;20601;-74
2022/10/15 05:34:29;;;;;;;81.00;39.28;;;;;;;;;;5010626;28;20281;-74
2022/10/15 05:36:54;;;;;;;87.80;39.53;;;;;;;;;;5020522;28;20205;-75
2022/10/15 05:39:19;;;;;;;89.93;38.60;;;;;;;;;;5024360;28;20249;-75
2022/10/15 05:41:44;;;;;;;83.72;38.58;;;;;;;;;;5012787;28;20549;-73
2022/10/15 05:44:10;;;;;;;98.10;40.78;;;;;;;;;;5028482;28;20190;-75
2022/10/15 05:46:35;;;;;;;105.35;42.42;;;;;;;;;;5012483;28;20218;-75
2022/10/15 05:49:00;;;;;;;100.90;42.65;;;;;;;;;;5023166;28;20190;-74
2022/10/15 05:51:26;;;;;;;97.53;42.33;;;;;;;;;;5030787;28;20170;-74
2022/10/15 05:53:52;;;;;;;95.72;40.78;;;;;;;;;;5017096;28;20316;-74
2022/10/15 05:56:17;;;;;;;103.18;43.60;;;;;;;;;;5019122;28;20167;-75
2022/10/15 05:58:42;;;;;;;98.80;43.00;;;;;;;;;;5022987;28;20201;-74
2022/10/15 06:01:09;;;;;;;97.88;40.97;;;;;;;;;;5009072;28;20179;-75
2022/10/15 06:03:35;;;;;;;115.22;42.88;;;;;;;;;;5013230;28;20189;-75
2022/10/15 06:06:00;;;;;;;107.13;41.42;;;;;;;;;;5009596;28;20579;-74
2022/10/15 06:08:26;;;;;;;97.85;41.15;;;;;;;;;;5026561;28;20225;-74
2022/10/15 06:10:51;;;;;;;100.93;41.83;;;;;;;;;;5027524;28;20707;-74
2022/10/15 06:13:17;;;;;;;102.95;39.90;;;;;;;;;;5007765;28;20187;-74
2022/10/15 06:15:43;;;;;;;103.95;41.70;;;;;;;;;;5010030;28;20191;-73
2022/10/15 06:18:09;;;;;;;103.78;41.08;;;;;;;;;;5026339;28;20174;-73
2022/10/15 06:20:34;;;;;;;96.93;39.33;;;;;;;;;;5005119;28;20206;-75
2022/10/15 06:23:00;;;;;;;98.25;42.05;;;;;;;;;;5011379;28;20185;-75
2022/10/15 06:25:26;;;;;;;98.93;38.28;;;;;;;;;;5028604;28;20222;-75
2022/10/15 06:27:51;;;;;;;108.60;42.97;;;;;;;;;;5017143;28;20214;-75
2022/10/15 06:30:17;;;;;;;107.53;40.40;;;;;;;;;;5018096;28;20205;-74
2022/10/15 06:32:46;;;;;;;105.85;41.00;;;;;;;;;;5000461;28;20602;-75
2022/10/15 06:35:11;;;;;;;98.20;38.28;;;;;;;;;;5031664;28;20459;-74
2022/10/15 06:37:36;;;;;;;99.15;40.40;;;;;;;;;;5033875;28;20265;-75
2022/10/15 06:40:01;;;;;;;92.15;38.33;;;;;;;;;;5028078;28;20187;-75
2022/10/15 06:42:27;;;;;;;86.25;37.15;;;;;;;;;;5013962;28;20657;-74
2022/10/15 06:44:52;;;;;;;71.97;32.90;;;;;;;;;;5009158;28;20226;-73
2022/10/15 06:47:17;;;;;;;73.53;31.92;;;;;;;;;;5013312;28;20181;-75
2022/10/15 06:49:42;;;;;;;69.30;31.05;;;;;;;;;;5029294;28;20699;-74
2022/10/15 06:52:07;;;;;;;69.88;31.83;;;;;;;;;;5034210;28;20220;-73
2022/10/15 06:54:33;;;;;;;70.22;30.27;;;;;;;;;;5024920;28;20213;-74
2022/10/15 06:56:58;;;;;;;74.32;33.15;;;;;;;;;;5022833;28;20190;-75
2022/10/15 06:59:23;;;;;;;70.47;30.92;;;;;;;;;;5012345;28;20187;-74
2022/10/15 07:01:48;;;;;;;75.28;33.00;;;;;;;;;;5022109;28;20178;-73
2022/10/15 07:04:14;;;;;;;79.45;34.42;;;;;;;;;;5031335;28;20578;-74
2022/10/15 07:06:40;;;;;;;76.55;31.80;;;;;;;;;;5029578;28;20186;-74
2022/10/15 07:09:05;;;;;;;73.55;31.42;;;;;;;;;;5019555;28;20187;-74
2022/10/15 07:11:31;;;;;;;72.65;31.65;;;;;;;;;;5019812;28;20179;-74
2022/10/15 07:13:57;;;;;;;63.70;28.90;;;;;;;;;;5026419;28;20178;-74
2022/10/15 07:16:22;;;;;;;57.45;29.23;;;;;;;;;;5017666;28;20250;-74
2022/10/15 07:18:47;;;;;;;53.08;24.23;;;;;;;;;;5021473;28;20170;-74
2022/10/15 07:21:12;;;;;;;52.95;25.58;;;;;;;;;;5029932;28;20174;-74
2022/10/15 07:23:38;;;;;;;47.47;23.73;;;;;;;;;;5016285;28;20266;-73
2022/10/15 07:26:03;;;;;;;45.30;23.27;;;;;;;;;;5007614;28;20246;-75
2022/10/15 07:28:28;;;;;;;42.42;22.02;;;;;;;;;;5011657;28;20644;-74
2022/10/15 07:30:54;;;;;;;40.92;20.70;;;;;;;;;;5020177;28;20199;-73
2022/10/15 07:33:19;;;;;;;37.08;20.65;;;;;;;;;;5022096;28;20251;-74
2022/10/15 07:35:44;;;;;;;33.35;18.45;;;;;;;;;;5029812;28;20236;-74
2022/10/15 07:38:09;;;;;;;28.13;17.83;;;;;;;;;;5012286;28;20179;-73
2022/10/15 07:40:35;;;;;;;27.50;17.15;;;;;;;;;;5021876;28;20197;-73
2022/10/15 07:43:00;;;;;;;30.27;16.90;;;;;;;;;;5031689;28;20178;-73
2022/10/15 07:45:26;;;;;;;25.83;16.70;;;;;;;;;;5013513;28;20194;-73
2022/10/15 07:47:51;;;;;;;27.15;17.17;;;;;;;;;;5026638;28;20269;-73
2022/10/15 07:50:17;;;;;;;25.40;16.27;;;;;;;;;;5012970;28;20205;-73
2022/10/15 07:52:42;;;;;;;22.60;14.05;;;;;;;;;;4991439;28;20628;-73
2022/10/15 07:55:07;;;;;;;26.50;16.33;;;;;;;;;;5012286;28;20251;-74
2022/10/15 07:57:33;;;;;;;22.80;14.57;;;;;;;;;;5025010;28;20191;-73
2022/10/15 07:59:58;;;;;;;25.88;15.18;;;;;;;;;;5016916;28;20190;-73
2022/10/15 08:02:23;;;;;;;27.52;16.33;;;;;;;;;;5025070;28;20585;-73
2022/10/15 08:04:48;;;;;;;26.10;17.33;;;;;;;;;;5029295;28;20194;-75
2022/10/15 08:07:14;;;;;;;25.90;15.70;;;;;;;;;;5032934;28;20174;-73
2022/10/15 08:09:39;;;;;;;25.40;15.95;;;;;;;;;;5005245;28;20198;-73
2022/10/15 08:12:05;;;;;;;24.10;15.27;;;;;;;;;;5011145;28;20240;-74
2022/10/15 08:14:31;;;;;;;27.42;16.35;;;;;;;;;;5012798;28;20191;-75
2022/10/15 08:16:56;;;;;;;23.20;15.80;;;;;;;;;;5030347;28;20184;-75
2022/10/15 08:19:21;;;;;;;26.80;15.40;;;;;;;;;;5006714;28;20181;-74
2022/10/15 08:21:46;;;;;;;24.75;15.70;;;;;;;;;;5028411;28;20237;-73
2022/10/15 08:24:11;;;;;;;25.83;15.43;;;;;;;;;;5010620;28;20214;-73
2022/10/15 08:26:37;;;;;;;24.80;15.90;;;;;;;;;;5015463;28;20187;-73
2022/10/15 08:29:02;;;;;;;22.58;14.70;;;;;;;;;;5006506;28;20178;-73
2022/10/15 08:31:28;;;;;;;22.40;15.65;;;;;;;;;;5029261;28;20649;-73
2022/10/15 08:33:53;;;;;;;18.58;13.07;;;;;;;;;;5029620;28;20181;-73
2022/10/15 08:36:18;;;;;;;18.35;13.48;;;;;;;;;;5031369;28;20179;-73
2022/10/15 08:38:43;;;;;;;17.92;11.80;;;;;;;;;;5028074;28;20274;-73
2022/10/15 08:41:38;;;;;;;15.32;12.05;;;;;;;;;;5017051;28;20187;-73
2022/10/15 08:44:03;;;;;;;16.42;11.40;;;;;;;;;;4947328;28;20199;-73
2022/10/15 08:46:41;;;;;;;15.38;10.60;;;;;;;;;;5030153;28;20174;-73
2022/10/15 08:49:12;;;;;;;16.27;11.98;;;;;;;;;;5027215;28;20239;-73
2022/10/15 08:51:40;;;;;;;14.93;11.20;;;;;;;;;;5011679;28;20672;-73
2022/10/15 08:54:05;;;;;;;15.73;11.57;;;;;;;;;;5018567;28;20203;-73
2022/10/15 08:56:35;;;;;;;15.35;12.25;;;;;;;;;;5021126;28;20254;-75
2022/10/15 08:59:10;;;;;;;14.93;10.77;;;;;;;;;;5027967;28;20177;-73
2022/10/15 09:01:46;;;;;;;15.15;11.00;;;;;;;;;;5029934;28;20222;-73
2022/10/15 09:04:12;;;;;;;14.05;10.52;;;;;;;;;;5032038;28;20242;-73
2022/10/15 09:06:38;;;;;;;13.05;9.70;;;;;;;;;;5007870;28;20213;-73
2022/10/15 09:09:20;;;;;;;13.90;10.90;;;;;;;;;;5012472;28;20199;-73
2022/10/15 09:11:51;;;;;;;12.38;9.82;;;;;;;;;;5026988;28;20644;-73
2022/10/15 09:14:22;;;;;;;11.85;9.45;;;;;;;;;;5024885;28;20625;-73
2022/10/15 09:16:48;;;;;;;10.00;8.10;;;;;;;;;;5001598;28;20196;-73
2022/10/15 09:19:16;;;;;;;10.48;8.07;;;;;;;;;;5010599;28;20166;-73
2022/10/15 09:21:41;;;;;;;11.52;9.90;;;;;;;;;;5016901;28;20190;-73
2022/10/15 09:24:11;;;;;;;12.52;9.25;;;;;;;;;;5023129;28;20194;-73
2022/10/15 09:26:39;;;;;;;11.35;8.85;;;;;;;;;;5011243;28;20671;-74
2022/10/15 09:29:21;;;;;;;11.60;8.88;;;;;;;;;;5027035;28;20175;-73
2022/10/15 09:32:09;;;;;;;12.27;9.07;;;;;;;;;;5000115;28;20691;-74
2022/10/15 09:34:38;;;;;;;10.68;8.73;;;;;;;;;;5013321;28;20577;-73
2022/10/15 09:37:14;;;;;;;12.55;8.65;;;;;;;;;;5011189;28;20179;-73
2022/10/15 09:39:48;;;;;;;12.40;8.60;;;;;;;;;;5021388;28;20174;-74
2022/10/15 09:42:16;;;;;;;15.95;10.48;;;;;;;;;;5027255;28;20724;-74
2022/10/15 09:44:43;;;;;;;12.15;8.80;;;;;;;;;;5029812;28;20198;-75
2022/10/15 09:47:14;;;;;;;14.38;9.45;;;;;;;;;;5015828;28;20603;-75
2022/10/15 09:49:40;;;;;;;13.00;9.60;;;;;;;;;;5001771;28;20198;-75
2022/10/15 09:52:09;;;;;;;13.13;9.20;;;;;;;;;;4999555;28;20174;-74
2022/10/15 09:54:41;;;;;;;11.65;8.80;;;;;;;;;;5004070;28;20230;-74
2022/10/15 09:57:08;;;;;;;12.18;8.90;;;;;;;;;;5030744;28;20166;-74
2022/10/15 09:59:33;;;;;;;13.85;8.75;;;;;;;;;;5017018;28;20245;-76
2022/10/15 10:02:13;;;;;;;10.27;7.85;;;;;;;;;;5010556;28;20661;-75
2022/10/15 10:04:38;;;;;;;12.85;8.27;;;;;;;;;;5022640;28;20212;-74
2022/10/15 10:07:08;;;;;;;10.20;7.65;;;;;;;;;;5030249;28;20647;-75
2022/10/15 10:09:36;;;;;;;11.50;7.68;;;;;;;;;;5019739;28;20216;-74
2022/10/15 10:12:03;;;;;;;11.43;8.20;;;;;;;;;;5013132;28;20240;-75
2022/10/15 10:14:35;;;;;;;10.80;8.20;;;;;;;;;;5017838;28;20706;-75
2022/10/15 10:17:14;;;;;;;11.27;7.95;;;;;;;;;;4996611;28;20175;-75
2022/10/15 10:19:39;;;;;;;12.07;9.00;;;;;;;;;;5031608;28;20174;-75
2022/10/15 10:22:05;;;;;;;10.52;8.50;;;;;;;;;;5023275;28;20758;-75
2022/10/15 10:24:33;;;;;;;14.05;9.43;;;;;;;;;;5019954;28;20225;-75
2022/10/15 10:26:59;;;;;;;14.13;9.65;;;;;;;;;;5030083;28;20183;-75
2022/10/15 10:29:25;;;;;;;15.43;10.10;;;;;;;;;;5018387;28;20179;-74
2022/10/15 10:31:51;;;;;;;15.70;10.80;;;;;;;;;;5029196;28;20267;-75
2022/10/15 10:34:21;;;;;;;13.75;10.25;;;;;;;;;;5013722;28;20205;-75
2022/10/15 10:36:50;;;;;;;15.75;10.88;;;;;;;;;;5016406;28;20542;-75
2022/10/15 10:39:26;;;;;;;13.68;10.00;;;;;;;;;;5034820;28;20175;-75
2022/10/15 10:41:54;;;;;;;11.70;9.45;;;;;;;;;;5014251;28;20544;-75
2022/10/15 10:44:26;;;;;;;13.02;9.65;;;;;;;;;;5013138;28;20186;-75
2022/10/15 10:47:00;;;;;;;14.27;10.23;;;;;;;;;;5033834;28;20668;-75
2022/10/15 10:49:32;;;;;;;12.07;9.43;;;;;;;;;;5012220;28;20227;-75
2022/10/15 10:51:57;;;;;;;13.85;10.07;;;;;;;;;;5012427;28;20633;-75
2022/10/15 10:54:23;;;;;;;12.55;8.85;;;;;;;;;;5013275;28;20203;-75
2022/10/15 10:56:49;;;;;;;9.95;8.52;;;;;;;;;;5007203;28;20254;-75
2022/10/15 10:59:33;;;;;;;10.98;8.93;;;;;;;;;;5018012;28;20183;-75
2022/10/15 11:01:58;;;;;;;11.13;8.93;;;;;;;;;;5033324;28;20166;-75
2022/10/15 11:04:29;;;;;;;9.88;7.88;;;;;;;;;;5015582;28;20875;-75
2022/10/15 11:06:57;;;;;;;9.50;7.82;;;;;;;;;;5017223;28;20305;-75
2022/10/15 11:09:25;;;;;;;10.20;7.93;;;;;;;;;;5015874;28;20175;-73
2022/10/15 11:12:02;;;;;;;11.00;8.48;;;;;;;;;;5027689;28;20209;-73
2022/10/15 11:14:39;;;;;;;8.68;7.20;;;;;;;;;;5024719;28;20680;-73
2022/10/15 11:17:14;;;;;;;8.55;7.32;;;;;;;;;;5025173;28;20229;-74
2022/10/15 11:19:59;;;;;;;8.07;6.72;;;;;;;;;;5014387;28;20591;-75
2022/10/15 11:22:42;;;;;;;7.75;6.20;;;;;;;;;;5012681;28;20174;-73
2022/10/15 11:25:10;;;;;;;7.45;5.63;;;;;;;;;;5017463;28;20301;-75
2022/10/15 11:27:54;;;;;;;6.80;5.80;;;;;;;;;;5014115;28;20182;-75
2022/10/15 11:30:33;;;;;;;7.38;5.70;;;;;;;;;;5029913;28;20201;-73
2022/10/15 11:33:17;;;;;;;6.63;5.20;;;;;;;;;;5015650;28;20178;-75
2022/10/15 11:35:50;;;;;;;6.15;5.00;;;;;;;;;;5018141;28;20210;-75
2022/10/15 11:38:25;;;;;;;5.72;4.53;;;;;;;;;;5023130;28;20640;-75
2022/10/15 11:41:08;;;;;;;5.38;4.57;;;;;;;;;;5019211;28;20178;-75
2022/10/15 11:43:49;;;;;;;6.07;5.47;;;;;;;;;;5028751;28;20178;-75
2022/10/15 11:46:27;;;;;;;6.10;5.03;;;;;;;;;;5031382;28;20206;-75
2022/10/15 11:49:02;;;;;;;5.57;4.95;;;;;;;;;;4989240;28;20526;-73
2022/10/15 11:51:46;;;;;;;7.05;5.75;;;;;;;;;;5010906;28;20197;-75
2022/10/15 11:54:14;;;;;;;7.13;5.78;;;;;;;;;;5007544;28;20198;-75
2022/10/15 11:56:41;;;;;;;6.93;5.93;;;;;;;;;;5031952;28;20174;-73
2022/10/15 11:59:25;;;;;;;7.97;5.93;;;;;;;;;;5007549;28;20651;-75
2022/10/15 12:01:56;;;;;;;7.22;6.10;;;;;;;;;;5027594;28;20656;-73
2022/10/15 12:04:40;;;;;;;7.28;6.07;;;;;;;;;;5018543;28;20191;-74
2022/10/15 12:07:06;;;;;;;6.47;5.57;;;;;;;;;;5033108;28;20182;-76
2022/10/15 12:09:35;;;;;;;7.35;6.32;;;;;;;;;;5023675;28;20715;-75
2022/10/15 12:12:13;;;;;;;6.85;6.15;;;;;;;;;;5026626;28;20710;-75
2022/10/15 12:15:01;;;;;;;7.65;6.18;;;;;;;;;;5023320;28;20199;-75
2022/10/15 12:17:35;;;;;;;7.97;6.32;;;;;;;;;;4998584;28;20577;-75
2022/10/15 12:20:05;;;;;;;6.90;6.15;;;;;;;;;;5010323;28;20681;-73
2022/10/15 12:22:32;;;;;;;6.03;5.43;;;;;;;;;;5019747;28;20231;-73
2022/10/15 12:24:58;;;;;;;8.02;6.43;;;;;;;;;;5024995;28;20210;-73
2022/10/15 12:27:33;;;;;;;8.32;6.10;;;;;;;;;;5022463;28;20261;-73
2022/10/15 12:29:58;;;;;;;8.15;6.47;;;;;;;;;;5017067;28;20707;-73
2022/10/15 12:32:25;;;;;;;7.90;7.10;;;;;;;;;;5023774;28;20193;-75
2022/10/15 12:34:58;;;;;;;7.45;6.65;;;;;;;;;;5028816;28;20442;-74
2022/10/15 12:37:24;;;;;;;7.10;6.38;;;;;;;;;;5031663;28;20174;-73
2022/10/15 12:39:54;;;;;;;7.50;6.55;;;;;;;;;;5025351;28;20703;-75
2022/10/15 12:42:27;;;;;;;6.85;6.15;;;;;;;;;;5023189;28;20191;-73
2022/10/15 12:44:52;;;;;;;10.63;7.03;;;;;;;;;;5022794;28;20194;-73
2022/10/15 12:47:36;;;;;;;6.80;6.00;;;;;;;;;;4996223;28;20182;-73
2022/10/15 12:50:04;;;;;;;6.90;6.20;;;;;;;;;;5016682;28;20206;-73
2022/10/15 12:52:47;;;;;;;7.40;5.78;;;;;;;;;;5031559;28;20598;-73
2022/10/15 12:55:19;;;;;;;8.93;6.47;;;;;;;;;;5029016;28;20186;-73
2022/10/15 12:57:44;;;;;;;6.70;5.50;;;;;;;;;;4990154;28;20650;-73
2022/10/15 13:00:24;;;;;;;5.80;5.10;;;;;;;;;;5016509;28;20206;-75
2022/10/15 13:02:50;;;;;;;6.18;5.15;;;;;;;;;;4998966;28;20207;-73
2022/10/15 13:05:27;;;;;;;4.50;4.10;;;;;;;;;;5027822;28;20205;-73
2022/10/15 13:07:54;;;;;;;5.53;4.68;;;;;;;;;;4992013;28;20170;-73
2022/10/15 13:10:34;;;;;;;7.65;4.60;;;;;;;;;;5004714;28;20494;-73
2022/10/15 13:13:01;;;;;;;4.75;4.07;;;;;;;;;;5025067;28;20651;-73
2022/10/15 13:15:28;;;;;;;5.70;4.47;;;;;;;;;;5009597;28;20674;-73
2022/10/15 13:18:05;;;;;;;7.13;5.45;;;;;;;;;;5025114;28;20539;-73
2022/10/15 13:20:35;;;;;;;5.00;4.50;;;;;;;;;;5022515;28;20722;-73
2022/10/15 13:23:15;;;;;;;4.95;4.28;;;;;;;;;;5019724;28;20316;-74
2022/10/15 13:25:40;;;;;;;5.47;4.35;;;;;;;;;;5027802;28;20292;-74
2022/10/15 13:28:24;;;;;;;4.57;3.92;;;;;;;;;;5031579;28;20390;-74
2022/10/15 13:30:49;;;;;;;5.63;4.95;;;;;;;;;;5003895;28;20210;-74
2022/10/15 13:33:14;;;;;;;4.88;4.38;;;;;;;;;;5014943;28;20308;-74
2022/10/15 13:35:40;;;;;;;3.83;3.42;;;;;;;;;;5015182;28;20224;-74
2022/10/15 13:38:05;;;;;;;3.88;3.47;;;;;;;;;;5027599;28;20174;-73
2022/10/15 13:40:31;;;;;;;4.03;3.45;;;;;;;;;;5023072;28;20660;-73
2022/10/15 13:43:05;;;;;;;6.20;4.03;;;;;;;;;;5026641;28;20553;-74
2022/10/15 13:45:30;;;;;;;4.45;4.03;;;;;;;;;;5024928;28;20567;-74
2022/10/15 13:47:55;;;;;;;3.85;3.55;;;;;;;;;;5018063;28;20168;-73
2022/10/15 13:50:31;;;;;;;3.95;3.58;;;;;;;;;;5029432;28;20289;-73
2022/10/15 13:53:05;;;;;;;3.30;3.00;;;;;;;;;;5008132;28;20174;-73
2022/10/15 13:55:32;;;;;;;2.70;2.50;;;;;;;;;;5023178;28;20224;-73
2022/10/15 13:58:03;;;;;;;4.13;3.72;;;;;;;;;;5021803;28;20222;-73
2022/10/15 14:00:31;;;;;;;3.95;2.83;;;;;;;;;;5021191;28;20175;-73
2022/10/15 14:03:16;;;;;;;3.92;3.47;;;;;;;;;;5024678;28;20248;-73
2022/10/15 14:05:45;;;;;;;3.92;2.67;;;;;;;;;;5028505;28;20190;-73
2022/10/15 14:08:14;;;;;;;2.28;2.00;;;;;;;;;;5023167;28;20183;-73
2022/10/15 14:10:39;;;;;;;1.70;1.60;;;;;;;;;;5015100;28;20698;-73
2022/10/15 14:13:04;;;;;;;2.80;2.10;;;;;;;;;;5020105;28;20186;-73
2022/10/15 14:15:47;;;;;;;2.10;1.83;;;;;;;;;;5025023;28;20194;-73
2022/10/15 14:18:14;;;;;;;2.63;1.50;;;;;;;;;;5014270;28;20424;-73
2022/10/15 14:20:43;;;;;;;1.63;1.15;;;;;;;;;;5018234;28;20642;-73
2022/10/15 14:23:16;;;;;;;1.95;1.02;;;;;;;;;;5029908;28;20184;-73
2022/10/15 14:25:41;;;;;;;1.70;1.25;;;;;;;;;;5027953;28;20726;-73
2022/10/15 14:28:16;;;;;;;2.65;0.60;;;;;;;;;;5011747;28;20202;-73
2022/10/15 14:30:43;;;;;;;3.22;0.70;;;;;;;;;;5023553;28;20202;-73